sensor_id;sensor_type;location;lat;lon;timestamp;P1;durP1;ratioP1;P2;durP2;ratioP2
13797;SDS011;6970;51.340;3.240;2024-02-21T00:01:02;10.60;;;2.65;;
13797;SDS011;6970;51.340;3.240;2024-02-21T00:03:31;11.15;;;2.90;;
13797;SDS011;6970;51.340;3.240;2024-02-21T00:06:01;9.85;;;2.35;;
13797;SDS011;6970;51.340;3.240;2024-02-21T00:08:29;10.15;;;2.60;;
13797;SDS011;6970;51.340;3.240;2024-02-21T00:10:57;8.65;;;2.70;;
13797;SDS011;6970;51.340;3.240;2024-02-21T00:13:26;8.05;;;2.90;;
13797;SDS011;6970;51.340;3.240;2024-02-21T00:15:53;6.90;;;2.38;;
13797;SDS011;6970;51.340;3.240;2024-02-21T00:18:26;7.13;;;2.45;;
13797;SDS011;6970;51.340;3.240;2024-02-21T00:23:31;14.65;;;2.78;;
13797;SDS011;6970;51.340;3.240;2024-02-21T00:28:47;8.13;;;2.45;;
13797;SDS011;6970;51.340;3.240;2024-02-21T00:33:46;7.13;;;2.38;;
13797;SDS011;6970;51.340;3.240;2024-02-21T00:38:45;10.20;;;2.70;;
13797;SDS011;6970;51.340;3.240;2024-02-21T00:41:13;8.40;;;2.50;;
13797;SDS011;6970;51.340;3.240;2024-02-21T00:43:41;9.02;;;2.67;;
13797;SDS011;6970;51.340;3.240;2024-02-21T00:46:12;8.90;;;2.90;;
13797;SDS011;6970;51.340;3.240;2024-02-21T00:48:42;7.43;;;2.65;;
13797;SDS011;6970;51.340;3.240;2024-02-21T00:51:10;11.32;;;3.13;;
13797;SDS011;6970;51.340;3.240;2024-02-21T00:53:38;8.73;;;2.63;;
13797;SDS011;6970;51.340;3.240;2024-02-21T00:56:05;12.43;;;3.50;;
13797;SDS011;6970;51.340;3.240;2024-02-21T00:58:35;8.75;;;2.63;;
13797;SDS011;6970;51.340;3.240;2024-02-21T01:01:08;7.45;;;2.55;;
13797;SDS011;6970;51.340;3.240;2024-02-21T01:03:39;8.73;;;2.90;;
13797;SDS011;6970;51.340;3.240;2024-02-21T01:06:07;12.15;;;3.03;;
13797;SDS011;6970;51.340;3.240;2024-02-21T01:08:37;9.23;;;3.13;;
13797;SDS011;6970;51.340;3.240;2024-02-21T01:13:35;8.70;;;3.55;;
13797;SDS011;6970;51.340;3.240;2024-02-21T01:16:03;8.45;;;3.10;;
13797;SDS011;6970;51.340;3.240;2024-02-21T01:18:37;8.02;;;3.05;;
13797;SDS011;6970;51.340;3.240;2024-02-21T01:21:06;10.20;;;2.97;;
13797;SDS011;6970;51.340;3.240;2024-02-21T01:23:35;16.45;;;3.13;;
13797;SDS011;6970;51.340;3.240;2024-02-21T01:26:03;9.93;;;3.40;;
13797;SDS011;6970;51.340;3.240;2024-02-21T01:28:32;12.73;;;3.47;;
13797;SDS011;6970;51.340;3.240;2024-02-21T01:33:29;8.40;;;3.63;;
13797;SDS011;6970;51.340;3.240;2024-02-21T01:36:04;9.48;;;3.60;;
13797;SDS011;6970;51.340;3.240;2024-02-21T01:38:36;8.85;;;3.05;;
13797;SDS011;6970;51.340;3.240;2024-02-21T01:43:37;9.20;;;3.30;;
13797;SDS011;6970;51.340;3.240;2024-02-21T01:46:05;10.45;;;3.55;;
13797;SDS011;6970;51.340;3.240;2024-02-21T01:48:35;8.32;;;3.53;;
13797;SDS011;6970;51.340;3.240;2024-02-21T01:51:08;10.15;;;3.88;;
13797;SDS011;6970;51.340;3.240;2024-02-21T01:53:40;10.73;;;3.47;;
13797;SDS011;6970;51.340;3.240;2024-02-21T01:56:09;8.55;;;3.33;;
13797;SDS011;6970;51.340;3.240;2024-02-21T02:01:09;7.53;;;3.50;;
13797;SDS011;6970;51.340;3.240;2024-02-21T02:03:40;10.00;;;3.72;;
13797;SDS011;6970;51.340;3.240;2024-02-21T02:06:08;8.60;;;3.72;;
13797;SDS011;6970;51.340;3.240;2024-02-21T02:08:39;10.27;;;3.50;;
13797;SDS011;6970;51.340;3.240;2024-02-21T02:11:13;10.20;;;3.30;;
13797;SDS011;6970;51.340;3.240;2024-02-21T02:13:41;7.93;;;3.60;;
13797;SDS011;6970;51.340;3.240;2024-02-21T02:16:08;10.30;;;3.35;;
13797;SDS011;6970;51.340;3.240;2024-02-21T02:21:10;8.63;;;3.47;;
13797;SDS011;6970;51.340;3.240;2024-02-21T02:23:45;9.32;;;3.70;;
13797;SDS011;6970;51.340;3.240;2024-02-21T02:26:22;9.02;;;3.42;;
13797;SDS011;6970;51.340;3.240;2024-02-21T02:28:55;11.27;;;3.75;;
13797;SDS011;6970;51.340;3.240;2024-02-21T02:31:25;7.47;;;3.67;;
13797;SDS011;6970;51.340;3.240;2024-02-21T02:36:24;9.77;;;3.00;;
13797;SDS011;6970;51.340;3.240;2024-02-21T02:38:55;9.68;;;3.38;;
13797;SDS011;6970;51.340;3.240;2024-02-21T02:41:24;10.30;;;3.45;;
13797;SDS011;6970;51.340;3.240;2024-02-21T02:43:52;7.15;;;3.08;;
13797;SDS011;6970;51.340;3.240;2024-02-21T02:46:22;12.15;;;3.70;;
13797;SDS011;6970;51.340;3.240;2024-02-21T02:48:52;10.45;;;3.53;;
13797;SDS011;6970;51.340;3.240;2024-02-21T02:51:22;9.18;;;3.58;;
13797;SDS011;6970;51.340;3.240;2024-02-21T02:53:55;10.27;;;3.75;;
13797;SDS011;6970;51.340;3.240;2024-02-21T02:56:23;9.70;;;3.72;;
13797;SDS011;6970;51.340;3.240;2024-02-21T02:58:52;8.52;;;3.17;;
13797;SDS011;6970;51.340;3.240;2024-02-21T03:01:20;10.93;;;4.10;;
13797;SDS011;6970;51.340;3.240;2024-02-21T03:03:48;8.10;;;2.85;;
13797;SDS011;6970;51.340;3.240;2024-02-21T03:06:17;9.07;;;3.90;;
13797;SDS011;6970;51.340;3.240;2024-02-21T03:11:20;11.05;;;3.85;;
13797;SDS011;6970;51.340;3.240;2024-02-21T03:13:57;9.45;;;3.83;;
13797;SDS011;6970;51.340;3.240;2024-02-21T03:16:27;10.30;;;3.92;;
13797;SDS011;6970;51.340;3.240;2024-02-21T03:18:57;11.40;;;4.13;;
13797;SDS011;6970;51.340;3.240;2024-02-21T03:23:54;9.38;;;3.60;;
13797;SDS011;6970;51.340;3.240;2024-02-21T03:26:28;9.27;;;3.88;;
13797;SDS011;6970;51.340;3.240;2024-02-21T03:31:28;12.73;;;4.07;;
13797;SDS011;6970;51.340;3.240;2024-02-21T03:34:00;10.70;;;3.90;;
13797;SDS011;6970;51.340;3.240;2024-02-21T03:36:29;12.73;;;4.38;;
13797;SDS011;6970;51.340;3.240;2024-02-21T03:38:59;8.90;;;3.95;;
13797;SDS011;6970;51.340;3.240;2024-02-21T03:48:58;10.52;;;4.78;;
13797;SDS011;6970;51.340;3.240;2024-02-21T03:51:30;9.63;;;4.63;;
13797;SDS011;6970;51.340;3.240;2024-02-21T03:53:58;10.15;;;4.40;;
13797;SDS011;6970;51.340;3.240;2024-02-21T03:56:36;11.30;;;4.45;;
13797;SDS011;6970;51.340;3.240;2024-02-21T03:59:07;9.98;;;4.18;;
13797;SDS011;6970;51.340;3.240;2024-02-21T04:01:35;10.30;;;4.55;;
13797;SDS011;6970;51.340;3.240;2024-02-21T04:06:36;12.82;;;5.10;;
13797;SDS011;6970;51.340;3.240;2024-02-21T04:11:33;11.57;;;5.15;;
13797;SDS011;6970;51.340;3.240;2024-02-21T04:14:00;10.85;;;5.55;;
13797;SDS011;6970;51.340;3.240;2024-02-21T04:16:27;10.27;;;5.38;;
13797;SDS011;6970;51.340;3.240;2024-02-21T04:18:58;12.25;;;4.95;;
13797;SDS011;6970;51.340;3.240;2024-02-21T04:21:28;11.25;;;5.20;;
13797;SDS011;6970;51.340;3.240;2024-02-21T04:26:29;12.20;;;6.05;;
13797;SDS011;6970;51.340;3.240;2024-02-21T04:28:59;11.65;;;5.22;;
13797;SDS011;6970;51.340;3.240;2024-02-21T04:31:26;13.57;;;5.32;;
13797;SDS011;6970;51.340;3.240;2024-02-21T04:33:55;12.95;;;5.80;;
13797;SDS011;6970;51.340;3.240;2024-02-21T04:36:26;15.95;;;5.50;;
13797;SDS011;6970;51.340;3.240;2024-02-21T04:38:54;12.52;;;5.82;;
13797;SDS011;6970;51.340;3.240;2024-02-21T04:43:51;11.18;;;5.63;;
13797;SDS011;6970;51.340;3.240;2024-02-21T04:46:20;12.77;;;5.55;;
13797;SDS011;6970;51.340;3.240;2024-02-21T04:48:50;14.85;;;6.22;;
13797;SDS011;6970;51.340;3.240;2024-02-21T04:51:20;10.75;;;5.38;;
13797;SDS011;6970;51.340;3.240;2024-02-21T04:53:50;13.57;;;5.82;;
13797;SDS011;6970;51.340;3.240;2024-02-21T04:58:47;14.40;;;6.80;;
13797;SDS011;6970;51.340;3.240;2024-02-21T05:01:14;13.70;;;5.70;;
13797;SDS011;6970;51.340;3.240;2024-02-21T05:03:41;15.73;;;6.45;;
13797;SDS011;6970;51.340;3.240;2024-02-21T05:06:10;16.40;;;7.10;;
13797;SDS011;6970;51.340;3.240;2024-02-21T05:08:37;13.50;;;6.60;;
13797;SDS011;6970;51.340;3.240;2024-02-21T05:13:37;16.52;;;7.00;;
13797;SDS011;6970;51.340;3.240;2024-02-21T05:16:05;15.93;;;7.13;;
13797;SDS011;6970;51.340;3.240;2024-02-21T05:18:34;16.17;;;6.90;;
13797;SDS011;6970;51.340;3.240;2024-02-21T05:21:03;19.88;;;7.07;;
13797;SDS011;6970;51.340;3.240;2024-02-21T05:23:31;15.45;;;6.63;;
13797;SDS011;6970;51.340;3.240;2024-02-21T05:25:59;17.92;;;7.47;;
13797;SDS011;6970;51.340;3.240;2024-02-21T05:31:00;17.17;;;7.22;;
13797;SDS011;6970;51.340;3.240;2024-02-21T05:35:58;15.25;;;6.60;;
13797;SDS011;6970;51.340;3.240;2024-02-21T05:38:25;19.30;;;8.15;;
13797;SDS011;6970;51.340;3.240;2024-02-21T05:40:53;16.50;;;7.85;;
13797;SDS011;6970;51.340;3.240;2024-02-21T05:43:23;16.80;;;6.65;;
13797;SDS011;6970;51.340;3.240;2024-02-21T05:45:51;17.35;;;7.03;;
13797;SDS011;6970;51.340;3.240;2024-02-21T05:48:21;16.55;;;6.43;;
13797;SDS011;6970;51.340;3.240;2024-02-21T05:58:23;16.35;;;7.07;;
13797;SDS011;6970;51.340;3.240;2024-02-21T06:00:51;17.08;;;6.90;;
13797;SDS011;6970;51.340;3.240;2024-02-21T06:03:19;15.52;;;7.68;;
13797;SDS011;6970;51.340;3.240;2024-02-21T06:10:50;16.25;;;6.93;;
13797;SDS011;6970;51.340;3.240;2024-02-21T06:13:25;18.45;;;6.65;;
13797;SDS011;6970;51.340;3.240;2024-02-21T06:18:24;15.45;;;7.18;;
13797;SDS011;6970;51.340;3.240;2024-02-21T06:23:23;17.38;;;7.68;;
13797;SDS011;6970;51.340;3.240;2024-02-21T06:28:23;13.20;;;6.75;;
13797;SDS011;6970;51.340;3.240;2024-02-21T06:30:53;15.48;;;6.50;;
13797;SDS011;6970;51.340;3.240;2024-02-21T06:33:21;12.80;;;6.68;;
13797;SDS011;6970;51.340;3.240;2024-02-21T06:35:52;13.88;;;6.45;;
13797;SDS011;6970;51.340;3.240;2024-02-21T06:38:20;14.65;;;6.60;;
13797;SDS011;6970;51.340;3.240;2024-02-21T06:40:50;15.63;;;7.10;;
13797;SDS011;6970;51.340;3.240;2024-02-21T06:43:19;14.70;;;6.40;;
13797;SDS011;6970;51.340;3.240;2024-02-21T06:45:47;17.42;;;7.00;;
13797;SDS011;6970;51.340;3.240;2024-02-21T06:48:18;12.02;;;6.55;;
13797;SDS011;6970;51.340;3.240;2024-02-21T06:50:47;17.15;;;6.80;;
13797;SDS011;6970;51.340;3.240;2024-02-21T06:53:17;13.48;;;6.25;;
13797;SDS011;6970;51.340;3.240;2024-02-21T06:55:50;15.88;;;6.80;;
13797;SDS011;6970;51.340;3.240;2024-02-21T06:58:20;16.70;;;6.85;;
13797;SDS011;6970;51.340;3.240;2024-02-21T07:00:47;15.63;;;6.80;;
13797;SDS011;6970;51.340;3.240;2024-02-21T07:03:16;14.98;;;6.63;;
13797;SDS011;6970;51.340;3.240;2024-02-21T07:05:46;15.68;;;7.10;;
13797;SDS011;6970;51.340;3.240;2024-02-21T07:08:14;13.65;;;5.90;;
13797;SDS011;6970;51.340;3.240;2024-02-21T07:10:41;14.45;;;6.70;;
13797;SDS011;6970;51.340;3.240;2024-02-21T07:13:09;14.88;;;6.10;;
13797;SDS011;6970;51.340;3.240;2024-02-21T07:15:37;16.77;;;6.50;;
13797;SDS011;6970;51.340;3.240;2024-02-21T07:18:07;13.15;;;6.10;;
13797;SDS011;6970;51.340;3.240;2024-02-21T07:20:35;12.50;;;6.05;;
13797;SDS011;6970;51.340;3.240;2024-02-21T07:23:03;13.55;;;6.93;;
13797;SDS011;6970;51.340;3.240;2024-02-21T07:25:31;13.85;;;6.32;;
13797;SDS011;6970;51.340;3.240;2024-02-21T07:27:59;10.88;;;5.63;;
13797;SDS011;6970;51.340;3.240;2024-02-21T07:30:29;11.50;;;5.63;;
13797;SDS011;6970;51.340;3.240;2024-02-21T07:32:56;10.27;;;5.47;;
13797;SDS011;6970;51.340;3.240;2024-02-21T07:35:25;10.73;;;5.38;;
13797;SDS011;6970;51.340;3.240;2024-02-21T07:37:54;10.80;;;5.32;;
13797;SDS011;6970;51.340;3.240;2024-02-21T07:40:22;11.82;;;5.20;;
13797;SDS011;6970;51.340;3.240;2024-02-21T07:42:52;11.52;;;5.05;;
13797;SDS011;6970;51.340;3.240;2024-02-21T07:45:20;12.05;;;5.10;;
13797;SDS011;6970;51.340;3.240;2024-02-21T07:47:50;12.10;;;5.47;;
13797;SDS011;6970;51.340;3.240;2024-02-21T07:50:20;12.00;;;5.50;;
13797;SDS011;6970;51.340;3.240;2024-02-21T07:52:48;13.10;;;5.18;;
13797;SDS011;6970;51.340;3.240;2024-02-21T07:55:18;11.60;;;5.82;;
13797;SDS011;6970;51.340;3.240;2024-02-21T07:57:45;11.30;;;5.22;;
13797;SDS011;6970;51.340;3.240;2024-02-21T08:00:15;13.00;;;5.30;;
13797;SDS011;6970;51.340;3.240;2024-02-21T08:02:47;10.73;;;5.10;;
13797;SDS011;6970;51.340;3.240;2024-02-21T08:05:17;10.15;;;4.80;;
13797;SDS011;6970;51.340;3.240;2024-02-21T08:07:45;10.68;;;5.05;;
13797;SDS011;6970;51.340;3.240;2024-02-21T08:10:14;12.55;;;5.60;;
13797;SDS011;6970;51.340;3.240;2024-02-21T08:12:45;10.18;;;4.93;;
13797;SDS011;6970;51.340;3.240;2024-02-21T08:17:42;15.00;;;5.07;;
13797;SDS011;6970;51.340;3.240;2024-02-21T08:20:10;13.48;;;5.07;;
13797;SDS011;6970;51.340;3.240;2024-02-21T08:22:41;10.98;;;4.70;;
13797;SDS011;6970;51.340;3.240;2024-02-21T08:25:08;9.15;;;4.78;;
13797;SDS011;6970;51.340;3.240;2024-02-21T08:27:37;10.90;;;5.03;;
13797;SDS011;6970;51.340;3.240;2024-02-21T08:30:04;12.75;;;4.85;;
13797;SDS011;6970;51.340;3.240;2024-02-21T08:35:04;10.27;;;4.65;;
13797;SDS011;6970;51.340;3.240;2024-02-21T08:40:04;10.18;;;4.68;;
13797;SDS011;6970;51.340;3.240;2024-02-21T08:42:35;12.15;;;4.63;;
13797;SDS011;6970;51.340;3.240;2024-02-21T08:45:05;10.90;;;4.95;;
13797;SDS011;6970;51.340;3.240;2024-02-21T08:47:32;11.18;;;4.82;;
13797;SDS011;6970;51.340;3.240;2024-02-21T08:50:01;11.32;;;4.75;;
13797;SDS011;6970;51.340;3.240;2024-02-21T08:52:47;12.48;;;4.90;;
13797;SDS011;6970;51.340;3.240;2024-02-21T08:55:20;12.45;;;5.80;;
13797;SDS011;6970;51.340;3.240;2024-02-21T08:57:47;8.98;;;4.00;;
13797;SDS011;6970;51.340;3.240;2024-02-21T09:00:15;12.63;;;4.82;;
13797;SDS011;6970;51.340;3.240;2024-02-21T09:02:42;10.82;;;5.13;;
13797;SDS011;6970;51.340;3.240;2024-02-21T09:07:41;13.50;;;5.38;;
13797;SDS011;6970;51.340;3.240;2024-02-21T09:10:15;10.88;;;5.63;;
13797;SDS011;6970;51.340;3.240;2024-02-21T09:12:44;10.73;;;5.03;;
13797;SDS011;6970;51.340;3.240;2024-02-21T09:15:12;11.25;;;4.97;;
13797;SDS011;6970;51.340;3.240;2024-02-21T09:22:46;12.55;;;5.05;;
13797;SDS011;6970;51.340;3.240;2024-02-21T09:25:13;10.45;;;4.93;;
13797;SDS011;6970;51.340;3.240;2024-02-21T09:27:43;10.98;;;4.93;;
13797;SDS011;6970;51.340;3.240;2024-02-21T09:30:11;13.13;;;5.07;;
13797;SDS011;6970;51.340;3.240;2024-02-21T09:32:38;11.80;;;5.35;;
13797;SDS011;6970;51.340;3.240;2024-02-21T09:35:07;9.75;;;5.28;;
13797;SDS011;6970;51.340;3.240;2024-02-21T09:37:35;10.70;;;5.10;;
13797;SDS011;6970;51.340;3.240;2024-02-21T09:40:10;13.18;;;5.63;;
13797;SDS011;6970;51.340;3.240;2024-02-21T09:42:39;10.80;;;5.20;;
13797;SDS011;6970;51.340;3.240;2024-02-21T09:45:31;13.15;;;5.68;;
13797;SDS011;6970;51.340;3.240;2024-02-21T09:51:14;10.90;;;5.82;;
13797;SDS011;6970;51.340;3.240;2024-02-21T09:53:43;17.33;;;6.00;;
13797;SDS011;6970;51.340;3.240;2024-02-21T09:56:27;11.45;;;5.90;;
13797;SDS011;6970;51.340;3.240;2024-02-21T09:59:01;14.23;;;5.35;;
13797;SDS011;6970;51.340;3.240;2024-02-21T10:01:32;12.45;;;5.53;;
13797;SDS011;6970;51.340;3.240;2024-02-21T10:04:01;11.60;;;5.78;;
13797;SDS011;6970;51.340;3.240;2024-02-21T10:06:31;12.02;;;6.05;;
13797;SDS011;6970;51.340;3.240;2024-02-21T10:08:59;12.98;;;5.95;;
13797;SDS011;6970;51.340;3.240;2024-02-21T10:11:32;13.73;;;6.18;;
13797;SDS011;6970;51.340;3.240;2024-02-21T10:14:05;14.05;;;6.10;;
13797;SDS011;6970;51.340;3.240;2024-02-21T10:16:33;15.63;;;6.47;;
13797;SDS011;6970;51.340;3.240;2024-02-21T10:19:03;11.80;;;5.07;;
13797;SDS011;6970;51.340;3.240;2024-02-21T10:21:32;12.43;;;5.80;;
13797;SDS011;6970;51.340;3.240;2024-02-21T10:23:59;15.52;;;5.63;;
13797;SDS011;6970;51.340;3.240;2024-02-21T10:26:32;15.70;;;5.70;;
13797;SDS011;6970;51.340;3.240;2024-02-21T10:31:34;9.45;;;4.88;;
13797;SDS011;6970;51.340;3.240;2024-02-21T10:34:03;12.90;;;5.15;;
13797;SDS011;6970;51.340;3.240;2024-02-21T10:39:06;12.23;;;5.50;;
13797;SDS011;6970;51.340;3.240;2024-02-21T10:46:38;15.10;;;5.35;;
13797;SDS011;6970;51.340;3.240;2024-02-21T10:49:27;12.95;;;5.05;;
13797;SDS011;6970;51.340;3.240;2024-02-21T10:54:55;12.10;;;4.95;;
13797;SDS011;6970;51.340;3.240;2024-02-21T10:57:27;10.13;;;4.82;;
13797;SDS011;6970;51.340;3.240;2024-02-21T10:59:55;8.63;;;4.68;;
13797;SDS011;6970;51.340;3.240;2024-02-21T11:02:26;10.38;;;4.85;;
13797;SDS011;6970;51.340;3.240;2024-02-21T11:04:57;10.85;;;4.85;;
13797;SDS011;6970;51.340;3.240;2024-02-21T11:07:25;11.60;;;5.20;;
13797;SDS011;6970;51.340;3.240;2024-02-21T11:09:53;10.95;;;5.18;;
13797;SDS011;6970;51.340;3.240;2024-02-21T11:12:23;12.13;;;5.10;;
13797;SDS011;6970;51.340;3.240;2024-02-21T11:15:03;10.88;;;5.38;;
13797;SDS011;6970;51.340;3.240;2024-02-21T11:17:35;9.48;;;4.93;;
13797;SDS011;6970;51.340;3.240;2024-02-21T11:20:16;8.93;;;5.07;;
13797;SDS011;6970;51.340;3.240;2024-02-21T11:22:47;11.90;;;5.18;;
13797;SDS011;6970;51.340;3.240;2024-02-21T11:25:31;10.60;;;4.50;;
13797;SDS011;6970;51.340;3.240;2024-02-21T11:30:37;10.43;;;4.78;;
13797;SDS011;6970;51.340;3.240;2024-02-21T11:35:40;9.88;;;4.55;;
13797;SDS011;6970;51.340;3.240;2024-02-21T11:38:11;9.43;;;4.43;;
13797;SDS011;6970;51.340;3.240;2024-02-21T11:40:47;8.55;;;4.00;;
13797;SDS011;6970;51.340;3.240;2024-02-21T11:45:47;9.70;;;4.60;;
13797;SDS011;6970;51.340;3.240;2024-02-21T11:48:15;8.02;;;4.15;;
13797;SDS011;6970;51.340;3.240;2024-02-21T11:50:52;8.75;;;4.20;;
13797;SDS011;6970;51.340;3.240;2024-02-21T11:55:49;10.07;;;4.80;;
13797;SDS011;6970;51.340;3.240;2024-02-21T11:58:16;10.38;;;4.82;;
13797;SDS011;6970;51.340;3.240;2024-02-21T12:00:45;9.52;;;4.47;;
13797;SDS011;6970;51.340;3.240;2024-02-21T12:03:14;9.15;;;4.53;;
13797;SDS011;6970;51.340;3.240;2024-02-21T12:05:43;9.25;;;5.00;;
13797;SDS011;6970;51.340;3.240;2024-02-21T12:08:13;11.73;;;5.65;;
13797;SDS011;6970;51.340;3.240;2024-02-21T12:13:22;12.55;;;5.38;;
13797;SDS011;6970;51.340;3.240;2024-02-21T12:18:23;10.43;;;5.18;;
13797;SDS011;6970;51.340;3.240;2024-02-21T12:20:54;10.32;;;5.03;;
13797;SDS011;6970;51.340;3.240;2024-02-21T12:23:27;11.43;;;5.22;;
13797;SDS011;6970;51.340;3.240;2024-02-21T12:28:26;10.50;;;4.93;;
13797;SDS011;6970;51.340;3.240;2024-02-21T12:30:54;9.45;;;5.20;;
13797;SDS011;6970;51.340;3.240;2024-02-21T12:33:22;10.70;;;4.85;;
13797;SDS011;6970;51.340;3.240;2024-02-21T12:41:00;10.60;;;4.75;;
13797;SDS011;6970;51.340;3.240;2024-02-21T12:48:31;9.35;;;4.47;;
13797;SDS011;6970;51.340;3.240;2024-02-21T12:51:03;9.85;;;4.65;;
13797;SDS011;6970;51.340;3.240;2024-02-21T12:53:32;9.98;;;4.80;;
13797;SDS011;6970;51.340;3.240;2024-02-21T12:56:02;9.68;;;4.63;;
13797;SDS011;6970;51.340;3.240;2024-02-21T12:58:31;9.32;;;4.63;;
13797;SDS011;6970;51.340;3.240;2024-02-21T13:00:59;10.25;;;5.00;;
13797;SDS011;6970;51.340;3.240;2024-02-21T13:03:29;8.70;;;4.15;;
13797;SDS011;6970;51.340;3.240;2024-02-21T13:06:02;10.82;;;5.22;;
13797;SDS011;6970;51.340;3.240;2024-02-21T13:08:31;11.38;;;4.72;;
13797;SDS011;6970;51.340;3.240;2024-02-21T13:13:30;9.55;;;4.35;;
13797;SDS011;6970;51.340;3.240;2024-02-21T13:16:00;10.25;;;5.00;;
13797;SDS011;6970;51.340;3.240;2024-02-21T13:18:29;8.95;;;4.50;;
13797;SDS011;6970;51.340;3.240;2024-02-21T13:20:57;9.50;;;4.53;;
13797;SDS011;6970;51.340;3.240;2024-02-21T13:23:27;12.00;;;3.95;;
13797;SDS011;6970;51.340;3.240;2024-02-21T13:30:58;9.30;;;4.10;;
13797;SDS011;6970;51.340;3.240;2024-02-21T13:33:26;9.70;;;3.80;;
13797;SDS011;6970;51.340;3.240;2024-02-21T13:35:56;11.85;;;4.63;;
13797;SDS011;6970;51.340;3.240;2024-02-21T13:38:24;7.18;;;3.90;;
13797;SDS011;6970;51.340;3.240;2024-02-21T13:40:53;8.82;;;4.78;;
13797;SDS011;6970;51.340;3.240;2024-02-21T13:48:27;9.43;;;4.03;;
13797;SDS011;6970;51.340;3.240;2024-02-21T13:50:55;8.98;;;3.80;;
13797;SDS011;6970;51.340;3.240;2024-02-21T13:55:53;7.63;;;3.90;;
13797;SDS011;6970;51.340;3.240;2024-02-21T14:00:55;7.57;;;3.58;;
13797;SDS011;6970;51.340;3.240;2024-02-21T14:03:25;10.60;;;4.03;;
13797;SDS011;6970;51.340;3.240;2024-02-21T14:05:55;8.98;;;4.50;;
13797;SDS011;6970;51.340;3.240;2024-02-21T14:08:24;10.52;;;4.10;;
13797;SDS011;6970;51.340;3.240;2024-02-21T14:10:51;10.57;;;4.13;;
13797;SDS011;6970;51.340;3.240;2024-02-21T14:13:19;10.10;;;4.68;;
13797;SDS011;6970;51.340;3.240;2024-02-21T14:15:49;9.75;;;4.88;;
13797;SDS011;6970;51.340;3.240;2024-02-21T14:18:19;8.38;;;4.32;;
13797;SDS011;6970;51.340;3.240;2024-02-21T14:23:18;10.25;;;4.20;;
13797;SDS011;6970;51.340;3.240;2024-02-21T14:25:45;9.68;;;4.30;;
13797;SDS011;6970;51.340;3.240;2024-02-21T14:28:12;9.25;;;4.68;;
13797;SDS011;6970;51.340;3.240;2024-02-21T14:30:40;8.80;;;4.45;;
13797;SDS011;6970;51.340;3.240;2024-02-21T14:33:07;10.52;;;4.57;;
13797;SDS011;6970;51.340;3.240;2024-02-21T14:35:36;8.10;;;4.85;;
13797;SDS011;6970;51.340;3.240;2024-02-21T14:38:05;10.45;;;4.60;;
13797;SDS011;6970;51.340;3.240;2024-02-21T14:40:33;8.50;;;3.88;;
13797;SDS011;6970;51.340;3.240;2024-02-21T14:43:01;11.13;;;4.40;;
13797;SDS011;6970;51.340;3.240;2024-02-21T14:45:29;9.13;;;4.30;;
13797;SDS011;6970;51.340;3.240;2024-02-21T14:47:56;8.98;;;4.32;;
13797;SDS011;6970;51.340;3.240;2024-02-21T14:50:23;8.27;;;3.80;;
13797;SDS011;6970;51.340;3.240;2024-02-21T14:55:24;9.30;;;3.92;;
13797;SDS011;6970;51.340;3.240;2024-02-21T15:00:36;7.90;;;3.58;;
13797;SDS011;6970;51.340;3.240;2024-02-21T15:03:06;10.60;;;4.15;;
13797;SDS011;6970;51.340;3.240;2024-02-21T15:05:33;9.00;;;3.78;;
13797;SDS011;6970;51.340;3.240;2024-02-21T15:08:01;7.93;;;3.97;;
13797;SDS011;6970;51.340;3.240;2024-02-21T15:10:29;10.07;;;3.67;;
13797;SDS011;6970;51.340;3.240;2024-02-21T15:12:58;8.32;;;4.03;;
13797;SDS011;6970;51.340;3.240;2024-02-21T15:17:57;7.45;;;3.50;;
13797;SDS011;6970;51.340;3.240;2024-02-21T15:22:55;8.68;;;3.60;;
13797;SDS011;6970;51.340;3.240;2024-02-21T15:27:57;8.95;;;4.38;;
13797;SDS011;6970;51.340;3.240;2024-02-21T15:30:25;8.73;;;3.95;;
13797;SDS011;6970;51.340;3.240;2024-02-21T15:32:54;8.35;;;3.90;;
13797;SDS011;6970;51.340;3.240;2024-02-21T15:35:25;9.15;;;5.18;;
13797;SDS011;6970;51.340;3.240;2024-02-21T15:37:53;9.32;;;4.45;;
13797;SDS011;6970;51.340;3.240;2024-02-21T15:40:24;10.10;;;4.20;;
13797;SDS011;6970;51.340;3.240;2024-02-21T15:45:24;7.80;;;4.38;;
13797;SDS011;6970;51.340;3.240;2024-02-21T15:47:57;7.47;;;3.80;;
13797;SDS011;6970;51.340;3.240;2024-02-21T15:50:26;6.78;;;3.78;;
13797;SDS011;6970;51.340;3.240;2024-02-21T15:52:58;9.70;;;4.80;;
13797;SDS011;6970;51.340;3.240;2024-02-21T15:55:28;8.95;;;3.97;;
13797;SDS011;6970;51.340;3.240;2024-02-21T16:00:28;7.43;;;4.25;;
13797;SDS011;6970;51.340;3.240;2024-02-21T16:02:57;8.82;;;4.50;;
13797;SDS011;6970;51.340;3.240;2024-02-21T16:07:55;8.77;;;4.22;;
13797;SDS011;6970;51.340;3.240;2024-02-21T16:10:27;10.32;;;4.50;;
13797;SDS011;6970;51.340;3.240;2024-02-21T16:12:57;8.82;;;4.10;;
13797;SDS011;6970;51.340;3.240;2024-02-21T16:15:25;9.85;;;4.22;;
13797;SDS011;6970;51.340;3.240;2024-02-21T16:17:53;7.82;;;3.90;;
13797;SDS011;6970;51.340;3.240;2024-02-21T16:20:26;9.05;;;4.30;;
13797;SDS011;6970;51.340;3.240;2024-02-21T16:22:55;8.35;;;4.10;;
13797;SDS011;6970;51.340;3.240;2024-02-21T16:25:26;7.78;;;3.97;;
13797;SDS011;6970;51.340;3.240;2024-02-21T16:30:25;9.07;;;4.13;;
13797;SDS011;6970;51.340;3.240;2024-02-21T16:32:52;8.55;;;4.22;;
13797;SDS011;6970;51.340;3.240;2024-02-21T16:35:19;7.72;;;3.65;;
13797;SDS011;6970;51.340;3.240;2024-02-21T16:40:20;8.82;;;3.95;;
13797;SDS011;6970;51.340;3.240;2024-02-21T16:42:50;8.30;;;3.35;;
13797;SDS011;6970;51.340;3.240;2024-02-21T16:47:51;7.88;;;3.50;;
13797;SDS011;6970;51.340;3.240;2024-02-21T16:55:21;8.70;;;3.65;;
13797;SDS011;6970;51.340;3.240;2024-02-21T16:57:51;8.85;;;3.13;;
13797;SDS011;6970;51.340;3.240;2024-02-21T17:00:24;6.85;;;3.28;;
13797;SDS011;6970;51.340;3.240;2024-02-21T17:02:51;7.07;;;3.55;;
13797;SDS011;6970;51.340;3.240;2024-02-21T17:05:31;8.48;;;3.17;;
13797;SDS011;6970;51.340;3.240;2024-02-21T17:07:58;7.22;;;3.22;;
13797;SDS011;6970;51.340;3.240;2024-02-21T17:10:25;8.35;;;3.55;;
13797;SDS011;6970;51.340;3.240;2024-02-21T17:12:58;9.32;;;3.83;;
13797;SDS011;6970;51.340;3.240;2024-02-21T17:15:28;6.40;;;3.25;;
13797;SDS011;6970;51.340;3.240;2024-02-21T17:17:58;7.95;;;3.65;;
13797;SDS011;6970;51.340;3.240;2024-02-21T17:20:26;8.02;;;3.80;;
13797;SDS011;6970;51.340;3.240;2024-02-21T17:22:56;7.05;;;3.10;;
13797;SDS011;6970;51.340;3.240;2024-02-21T17:25:23;8.25;;;3.50;;
13797;SDS011;6970;51.340;3.240;2024-02-21T17:27:53;7.35;;;3.63;;
13797;SDS011;6970;51.340;3.240;2024-02-21T17:30:20;9.57;;;3.38;;
13797;SDS011;6970;51.340;3.240;2024-02-21T17:32:53;8.02;;;3.58;;
13797;SDS011;6970;51.340;3.240;2024-02-21T17:37:51;7.65;;;3.50;;
13797;SDS011;6970;51.340;3.240;2024-02-21T17:40:20;8.88;;;3.55;;
13797;SDS011;6970;51.340;3.240;2024-02-21T17:42:47;7.95;;;3.75;;
13797;SDS011;6970;51.340;3.240;2024-02-21T17:45:15;7.75;;;3.72;;
13797;SDS011;6970;51.340;3.240;2024-02-21T17:47:42;8.70;;;3.33;;
13797;SDS011;6970;51.340;3.240;2024-02-21T17:50:10;6.20;;;3.40;;
13797;SDS011;6970;51.340;3.240;2024-02-21T17:52:39;6.38;;;3.13;;
13797;SDS011;6970;51.340;3.240;2024-02-21T17:55:06;7.78;;;3.33;;
13797;SDS011;6970;51.340;3.240;2024-02-21T17:57:37;6.53;;;3.50;;
13797;SDS011;6970;51.340;3.240;2024-02-21T18:00:06;8.43;;;3.90;;
13797;SDS011;6970;51.340;3.240;2024-02-21T18:07:34;6.22;;;2.92;;
13797;SDS011;6970;51.340;3.240;2024-02-21T18:10:03;6.07;;;2.92;;
13797;SDS011;6970;51.340;3.240;2024-02-21T18:12:31;6.13;;;3.20;;
13797;SDS011;6970;51.340;3.240;2024-02-21T18:15:00;7.68;;;3.92;;
13797;SDS011;6970;51.340;3.240;2024-02-21T18:20:02;6.45;;;3.25;;
13797;SDS011;6970;51.340;3.240;2024-02-21T18:25:04;6.75;;;3.47;;
13797;SDS011;6970;51.340;3.240;2024-02-21T18:27:36;6.38;;;3.05;;
13797;SDS011;6970;51.340;3.240;2024-02-21T18:30:06;8.10;;;3.55;;
13797;SDS011;6970;51.340;3.240;2024-02-21T18:32:33;8.45;;;3.28;;